Shindler, South Dakota
Current Conditions -  °F | °C
As of 9:48 PM on Saturday 24 Jan 2015 (Local Time) from KFSD Reporting Station
Light Rain Light Rain  
Wind Chill: -1°   Ceiling: 800
Heat Index:   Visibility: 6mi
Dew Point:   Wind: 8mph
Humidity: 93%   Direction: 350°N
Pressure: 29.57"   Gusts: NA
Location:  43.5199°N, 96.7933°W
Report Text: KFSD 250348Z 35007KT 6SM -RA BR BKN008 OVC020 03/02 A2957 RMK AO2 RAB19 CIG 005V011 P0000 T00280017
Loading
Personal Weather Stations






























Interactive Weather Map New forecast layout! Learn more

10-Day Weather Forecast

Advertisements
Track Severe Weather on mobile